createdAt,value
2019-03-26T00:02:26.198Z,100005.42
2019-03-26T00:04:54.040Z,100014.88
2019-03-26T00:07:21.851Z,100002.68
2019-03-26T00:09:49.219Z,100008.08
2019-03-26T00:12:16.499Z,100008.08
2019-03-26T00:14:43.894Z,100005.70
2019-03-26T00:17:11.324Z,100005.70
2019-03-26T00:19:38.606Z,99998.36
2019-03-26T00:22:06.026Z,100009.01
2019-03-26T00:24:33.485Z,100009.01
2019-03-26T00:27:00.755Z,100013.26
2019-03-26T00:29:28.014Z,100018.50
2019-03-26T00:31:55.310Z,100021.69
2019-03-26T00:34:22.609Z,100026.59
2019-03-26T00:36:49.997Z,100026.59
2019-03-26T00:39:17.379Z,100025.06
2019-03-26T00:41:44.788Z,100023.17
2019-03-26T00:44:13.400Z,100025.49
2019-03-26T00:46:40.647Z,100017.52
2019-03-26T00:49:08.053Z,100017.52
2019-03-26T00:51:35.297Z,100035.05
2019-03-26T00:54:02.581Z,100035.05
2019-03-26T00:56:30.267Z,100034.63
2019-03-26T00:58:57.646Z,100038.08
2019-03-26T01:01:29.813Z,100038.08
2019-03-26T01:04:00.225Z,100033.44
2019-03-26T01:06:27.522Z,100043.13
2019-03-26T01:08:56.807Z,100043.13
2019-03-26T01:11:24.066Z,100047.55
2019-03-26T01:13:51.319Z,100038.70
2019-03-26T01:16:18.588Z,100038.70
2019-03-26T01:18:45.847Z,100041.21
2019-03-26T01:21:13.105Z,100044.95
2019-03-26T01:23:40.647Z,100044.95
2019-03-26T01:26:07.938Z,100038.30
2019-03-26T01:28:35.835Z,100051.41
2019-03-26T01:31:03.266Z,100051.41
2019-03-26T01:33:30.514Z,100049.89
2019-03-26T01:35:57.792Z,100054.09
2019-03-26T01:38:25.397Z,100061.28
2019-03-26T01:40:52.667Z,100058.56
2019-03-26T01:43:19.953Z,100059.45
2019-03-26T01:45:47.277Z,100059.45
2019-03-26T01:48:14.570Z,100062.39
2019-03-26T01:50:41.927Z,100067.20
2019-03-26T01:53:09.215Z,100069.41
2019-03-26T01:55:36.503Z,100067.98
2019-03-26T01:58:04.014Z,100072.84
2019-03-26T02:00:31.278Z,100077.27
2019-03-26T02:02:58.557Z,100077.27
2019-03-26T02:05:26.702Z,100086.11
2019-03-26T02:07:54.017Z,100086.11
2019-03-26T02:10:21.392Z,100087.70
2019-03-26T02:12:48.893Z,100087.70
2019-03-26T02:15:35.749Z,100094.77
2019-03-26T02:18:03.333Z,100094.77
2019-03-26T02:20:30.718Z,100086.88
2019-03-26T02:22:58.011Z,100086.88
2019-03-26T02:25:27.923Z,100102.23
2019-03-26T02:27:55.293Z,100105.81
2019-03-26T02:30:22.551Z,100105.81
2019-03-26T02:32:49.832Z,100116.83
2019-03-26T02:35:19.031Z,100104.42
2019-03-26T02:37:46.414Z,100115.78
2019-03-26T02:40:13.703Z,100115.78
2019-03-26T02:42:40.959Z,100110.03
2019-03-26T02:45:08.266Z,100100.91
2019-03-26T02:47:35.633Z,100100.91
2019-03-26T02:50:03.036Z,100118.25
2019-03-26T02:52:30.431Z,100114.80
2019-03-26T02:54:59.902Z,100114.88
2019-03-26T02:57:27.272Z,100126.60
2019-03-26T02:59:54.635Z,100124.80
2019-03-26T03:02:21.918Z,100124.80
2019-03-26T03:04:49.134Z,100130.81
2019-03-26T03:07:16.391Z,100124.16
2019-03-26T03:09:43.679Z,100122.30
2019-03-26T03:12:11.076Z,100122.30
2019-03-26T03:14:38.373Z,100133.00
2019-03-26T03:17:05.674Z,100135.12
2019-03-26T03:19:32.917Z,100135.48
2019-03-26T03:22:00.774Z,100139.98
2019-03-26T03:24:28.465Z,100137.70
2019-03-26T03:26:55.733Z,100128.59
2019-03-26T03:29:22.971Z,100193.08
2019-03-26T03:31:50.513Z,100133.61
2019-03-26T03:34:17.980Z,100131.81
2019-03-26T03:36:45.261Z,100138.06
2019-03-26T03:39:12.537Z,100138.06
2019-03-26T03:41:44.283Z,100144.61
2019-03-26T03:44:11.564Z,100144.61
2019-03-26T03:46:39.516Z,100149.59
2019-03-26T03:49:06.869Z,100143.22
2019-03-26T03:51:34.130Z,100148.29
2019-03-26T03:54:13.481Z,100149.72
2019-03-26T03:56:40.748Z,100150.16
2019-03-26T03:59:08.035Z,100146.45
2019-03-26T04:01:35.296Z,100153.31
2019-03-26T04:04:02.749Z,100174.45
2019-03-26T04:06:30.032Z,100147.10
2019-03-26T04:08:57.386Z,100155.19
2019-03-26T04:11:24.654Z,100159.08
2019-03-26T04:13:51.911Z,100167.30
2019-03-26T04:16:19.188Z,100164.42
2019-03-26T04:18:46.557Z,100164.42
2019-03-26T04:21:13.806Z,100172.95
2019-03-26T04:23:41.098Z,100171.60
2019-03-26T04:26:08.339Z,100172.05
2019-03-26T04:28:35.611Z,100168.34
2019-03-26T04:31:03.036Z,100170.54
2019-03-26T04:33:30.540Z,100170.54
2019-03-26T04:35:58.290Z,100174.24
2019-03-26T04:38:25.662Z,100174.79
2019-03-26T04:40:52.969Z,100178.62
2019-03-26T04:43:20.386Z,100181.10
2019-03-26T04:45:54.023Z,100182.90
2019-03-26T04:48:21.283Z,100182.90
2019-03-26T04:50:48.679Z,100251.21
2019-03-26T04:53:17.496Z,100193.30
2019-03-26T04:55:44.875Z,100189.19
2019-03-26T04:58:12.144Z,100191.59
2019-03-26T05:00:39.412Z,100190.62
2019-03-26T05:03:06.715Z,100190.62
2019-03-26T05:05:34.000Z,100200.32
2019-03-26T05:08:01.325Z,100199.21
2019-03-26T05:10:28.626Z,100196.73
2019-03-26T05:12:56.300Z,100195.78
2019-03-26T05:15:24.154Z,100206.72
2019-03-26T05:17:56.615Z,100204.23
2019-03-26T05:20:24.452Z,100198.03
2019-03-26T05:22:51.739Z,100197.84
2019-03-26T05:25:19.056Z,100192.05
2019-03-26T05:27:46.350Z,100192.05
2019-03-26T05:30:14.036Z,100198.00
2019-03-26T05:32:41.295Z,100206.42
2019-03-26T05:35:08.568Z,100209.33
2019-03-26T05:37:38.449Z,100209.20
2019-03-26T05:40:07.099Z,100209.20
2019-03-26T05:42:34.547Z,100222.02
2019-03-26T05:45:02.028Z,100211.73
2019-03-26T05:47:29.346Z,100211.73
2019-03-26T05:49:59.514Z,100217.78
2019-03-26T05:52:27.028Z,100229.69
2019-03-26T05:54:54.322Z,100231.23
2019-03-26T05:57:23.877Z,100235.80
2019-03-26T05:59:51.394Z,100229.41
2019-03-26T06:02:18.704Z,100237.70
2019-03-26T06:04:46.056Z,100237.84
2019-03-26T06:07:13.344Z,100237.03
2019-03-26T06:09:42.617Z,100248.31
2019-03-26T06:12:09.986Z,100239.18
2019-03-26T06:14:38.261Z,100242.00
2019-03-26T06:17:06.143Z,100244.89
2019-03-26T06:19:33.414Z,100255.84
2019-03-26T06:22:00.860Z,100255.84
2019-03-26T06:24:28.143Z,100273.52
2019-03-26T06:26:55.405Z,100252.23
2019-03-26T06:29:23.046Z,100251.31
2019-03-26T06:31:52.379Z,100254.55
2019-03-26T06:34:19.906Z,100265.89
2019-03-26T06:36:47.284Z,100261.11
2019-03-26T06:39:14.662Z,100261.79
2019-03-26T06:41:41.908Z,100259.05
2019-03-26T06:44:09.248Z,100255.39
2019-03-26T06:46:36.507Z,100254.41
2019-03-26T06:49:03.781Z,100256.89
2019-03-26T06:51:31.836Z,100254.54
2019-03-26T06:53:59.210Z,100260.98
2019-03-26T06:56:28.419Z,100260.98
2019-03-26T06:58:55.671Z,100260.66
2019-03-26T07:01:22.958Z,100266.47
2019-03-26T07:03:52.516Z,100260.70
2019-03-26T07:06:22.976Z,100275.41
2019-03-26T07:08:50.250Z,100263.27
2019-03-26T07:11:17.542Z,100266.35
2019-03-26T07:13:50.511Z,100265.43
2019-03-26T07:16:17.980Z,100265.43
2019-03-26T07:18:45.343Z,100266.38
2019-03-26T07:21:13.833Z,100266.38
2019-03-26T07:23:41.222Z,100264.88
2019-03-26T07:26:10.394Z,100257.14
2019-03-26T07:28:37.773Z,100269.84
2019-03-26T07:31:05.059Z,100264.84
2019-03-26T07:33:32.431Z,100277.35
2019-03-26T07:35:59.720Z,100277.35
2019-03-26T07:38:30.069Z,100280.66
2019-03-26T07:40:57.480Z,100280.66
2019-03-26T07:43:24.757Z,100279.59
2019-03-26T07:45:55.187Z,100278.03
2019-03-26T07:48:22.495Z,100278.03
2019-03-26T07:50:49.742Z,100295.11
2019-03-26T07:53:17.206Z,100284.91
2019-03-26T07:55:44.566Z,100283.50
2019-03-26T07:58:11.856Z,100283.11
2019-03-26T08:00:39.353Z,100295.13
2019-03-26T08:03:13.816Z,100292.57
2019-03-26T08:05:41.094Z,100294.68
2019-03-26T08:08:11.432Z,100292.53
2019-03-26T08:10:38.771Z,100292.62
2019-03-26T08:13:06.511Z,100303.73
2019-03-26T08:15:34.271Z,100303.73
2019-03-26T08:18:01.548Z,100290.62
2019-03-26T08:20:28.930Z,100290.62
2019-03-26T08:22:56.344Z,100295.28
2019-03-26T08:25:24.021Z,100302.69
2019-03-26T08:27:51.360Z,100301.36
2019-03-26T08:30:18.641Z,100303.84
2019-03-26T08:32:46.071Z,100307.38
2019-03-26T08:35:13.373Z,100307.38
2019-03-26T08:37:40.643Z,100323.38
2019-03-26T08:40:15.891Z,100323.38
2019-03-26T08:42:46.112Z,100314.70
2019-03-26T08:45:17.470Z,100321.56
2019-03-26T08:47:44.743Z,100321.56
2019-03-26T08:50:12.060Z,100323.69
2019-03-26T08:52:41.004Z,100323.69
2019-03-26T08:55:08.319Z,100320.36
2019-03-26T08:57:36.110Z,100325.29
2019-03-26T09:00:03.947Z,100328.45
2019-03-26T09:02:31.446Z,100328.45
2019-03-26T09:04:58.835Z,100326.00
2019-03-26T09:07:26.201Z,100322.27
2019-03-26T09:09:57.349Z,100320.30
2019-03-26T09:12:24.728Z,100324.05
2019-03-26T09:14:52.105Z,100329.09
2019-03-26T09:17:20.014Z,100335.86
2019-03-26T09:19:47.603Z,100168.91
2019-03-26T09:22:16.773Z,100337.84
2019-03-26T09:24:47.012Z,100339.54
2019-03-26T09:27:14.296Z,100336.36
2019-03-26T09:29:41.586Z,100343.02
2019-03-26T09:32:09.263Z,100343.81
2019-03-26T09:34:36.541Z,100354.69
2019-03-26T09:37:03.992Z,100350.44
2019-03-26T09:39:31.342Z,100351.86
2019-03-26T09:41:58.814Z,100348.73
2019-03-26T09:44:26.105Z,100354.39
2019-03-26T09:46:56.513Z,100350.34
2019-03-26T09:49:25.787Z,100350.34
2019-03-26T09:51:53.110Z,100357.51
2019-03-26T09:54:20.419Z,100352.25
2019-03-26T09:56:47.804Z,100343.37
2019-03-26T09:59:15.135Z,100371.12
2019-03-26T10:01:42.422Z,100354.24
2019-03-26T10:04:09.766Z,100356.05
2019-03-26T10:06:37.040Z,100354.02
2019-03-26T10:09:05.965Z,100352.20
2019-03-26T10:11:33.458Z,100368.28
2019-03-26T10:14:02.237Z,100366.53
2019-03-26T10:16:31.399Z,100362.37
2019-03-26T10:18:58.675Z,100372.55
2019-03-26T10:21:25.956Z,100369.41
2019-03-26T10:23:57.064Z,100366.88
2019-03-26T10:26:24.436Z,100373.98
2019-03-26T10:28:51.709Z,100364.05
2019-03-26T10:31:18.986Z,100363.58
2019-03-26T10:33:46.265Z,100362.66
2019-03-26T10:36:13.528Z,100364.38
2019-03-26T10:38:41.300Z,100364.95
2019-03-26T10:41:08.676Z,100359.86
2019-03-26T10:43:35.961Z,100357.30
2019-03-26T10:46:03.870Z,100363.23
2019-03-26T10:48:32.038Z,100361.90
2019-03-26T10:51:04.081Z,100365.73
2019-03-26T10:53:31.626Z,100365.84
2019-03-26T10:55:58.918Z,100363.19
2019-03-26T10:58:26.610Z,100358.30
2019-03-26T11:00:54.213Z,100350.84
2019-03-26T11:03:21.563Z,100350.59
2019-03-26T11:05:48.996Z,100346.98
2019-03-26T11:08:16.707Z,100338.69
2019-03-26T11:10:44.131Z,100337.45
2019-03-26T11:13:11.413Z,100332.11
2019-03-26T11:15:38.791Z,100335.80
2019-03-26T11:18:06.569Z,100323.05
2019-03-26T11:20:34.689Z,100318.84
2019-03-26T11:23:02.102Z,100318.92
2019-03-26T11:25:30.062Z,100311.78
2019-03-26T11:27:57.785Z,100315.83
2019-03-26T11:30:25.052Z,100308.20
2019-03-26T11:32:53.637Z,100306.38
2019-03-26T11:35:23.643Z,100318.70
2019-03-26T11:37:51.015Z,100310.11
2019-03-26T11:40:18.309Z,100300.05
2019-03-26T11:42:45.709Z,100299.29
2019-03-26T11:45:13.542Z,100288.88
2019-03-26T11:47:40.806Z,100299.57
2019-03-26T11:50:09.070Z,100293.30
2019-03-26T11:52:36.448Z,100296.58
2019-03-26T11:55:04.410Z,100295.84
2019-03-26T11:57:34.541Z,100297.25
2019-03-26T12:00:01.801Z,100296.30
2019-03-26T12:02:29.091Z,100293.93
2019-03-26T12:04:56.522Z,100291.87
2019-03-26T12:07:23.956Z,100293.57
2019-03-26T12:09:51.222Z,100294.23
2019-03-26T12:12:18.508Z,100285.59
2019-03-26T12:14:45.977Z,100299.19
2019-03-26T12:17:14.946Z,100282.91
2019-03-26T12:19:42.532Z,100283.09
2019-03-26T12:22:13.531Z,100288.09
2019-03-26T12:24:41.019Z,100288.80
2019-03-26T12:27:08.270Z,100291.36
2019-03-26T12:29:35.546Z,100298.07
2019-03-26T12:32:02.772Z,100290.52
2019-03-26T12:34:30.005Z,100288.17
2019-03-26T12:36:57.468Z,100272.66
2019-03-26T12:39:24.727Z,100276.10
2019-03-26T12:41:52.079Z,100275.29
2019-03-26T12:44:19.366Z,100274.54
2019-03-26T12:46:46.599Z,100272.97
2019-03-26T12:49:13.897Z,100266.58
2019-03-26T12:51:44.604Z,100278.02
2019-03-26T12:54:11.886Z,100272.30
2019-03-26T12:56:39.343Z,100274.16
2019-03-26T12:59:06.576Z,100270.09
2019-03-26T13:01:34.270Z,100270.66
2019-03-26T13:04:11.928Z,100264.89
2019-03-26T13:06:33.469Z,100263.19
2019-03-26T13:09:00.719Z,100261.85
2019-03-26T13:11:27.992Z,100268.87
2019-03-26T13:13:55.302Z,100273.64
2019-03-26T13:16:22.683Z,100268.16
2019-03-26T13:18:50.068Z,100267.25
2019-03-26T13:21:17.422Z,100265.89
2019-03-26T13:23:44.657Z,100266.19
2019-03-26T13:26:11.916Z,100268.03
2019-03-26T13:28:39.336Z,100267.95
2019-03-26T13:31:06.697Z,100266.63
2019-03-26T13:33:34.955Z,100264.31
2019-03-26T13:36:02.234Z,100266.88
2019-03-26T13:38:29.701Z,100269.08
2019-03-26T13:40:56.952Z,100265.03
2019-03-26T13:43:24.825Z,100259.70
2019-03-26T13:45:52.175Z,100248.43
2019-03-26T13:48:19.492Z,100247.75
2019-03-26T13:50:46.757Z,100241.56
2019-03-26T13:53:15.164Z,100237.02
2019-03-26T13:55:43.038Z,100235.53
2019-03-26T13:58:10.887Z,100232.11
2019-03-26T14:00:38.756Z,100235.05
2019-03-26T14:03:06.266Z,100230.37
2019-03-26T14:05:33.777Z,100229.81
2019-03-26T14:08:01.134Z,100218.36
2019-03-26T14:10:40.096Z,100210.69
2019-03-26T14:12:58.227Z,100215.45
2019-03-26T14:15:25.445Z,100208.94
2019-03-26T14:17:52.821Z,100206.34
2019-03-26T14:20:21.561Z,100200.39
2019-03-26T14:22:48.833Z,100205.42
2019-03-26T14:25:17.328Z,100206.16
2019-03-26T14:27:44.573Z,100212.12
2019-03-26T14:30:11.916Z,100209.54
2019-03-26T14:32:39.358Z,100208.43
2019-03-26T14:35:10.464Z,100206.10
2019-03-26T14:37:50.598Z,100200.17
2019-03-26T14:40:08.114Z,100191.43
2019-03-26T14:42:35.354Z,100197.92
2019-03-26T14:45:04.046Z,100204.93
2019-03-26T14:47:32.593Z,100203.23
2019-03-26T14:50:00.379Z,100199.64
2019-03-26T14:52:27.969Z,100201.31
2019-03-26T14:54:55.243Z,100202.42
2019-03-26T14:57:22.502Z,100207.19
2019-03-26T14:59:50.068Z,100194.39
2019-03-26T15:02:17.298Z,100195.08
2019-03-26T15:04:44.563Z,100197.38
2019-03-26T15:07:11.799Z,100197.19
2019-03-26T15:09:39.076Z,100199.03
2019-03-26T15:12:09.124Z,100195.14
2019-03-26T15:14:36.510Z,100192.91
2019-03-26T15:17:04.523Z,100204.92
2019-03-26T15:19:32.029Z,100207.38
2019-03-26T15:21:59.599Z,100211.73
2019-03-26T15:24:26.887Z,100213.75
2019-03-26T15:26:54.503Z,100211.43
2019-03-26T15:29:21.886Z,100201.54
2019-03-26T15:31:49.169Z,100200.80
2019-03-26T15:34:16.936Z,100196.14
2019-03-26T15:36:44.218Z,100194.56
2019-03-26T15:39:11.503Z,100190.13
2019-03-26T15:41:38.751Z,100201.05
2019-03-26T15:44:06.109Z,100193.93
2019-03-26T15:46:36.288Z,100198.77
2019-03-26T15:49:02.984Z,100195.07
2019-03-26T15:51:30.273Z,100199.23
2019-03-26T15:53:57.533Z,100197.26
2019-03-26T15:56:25.149Z,100194.61
2019-03-26T15:58:52.429Z,100192.45
2019-03-26T16:01:19.899Z,100188.14
2019-03-26T16:03:47.578Z,100196.73
2019-03-26T16:06:14.925Z,100197.37
2019-03-26T16:08:44.533Z,100196.28
2019-03-26T16:11:11.945Z,100204.44
2019-03-26T16:13:39.261Z,100198.09
2019-03-26T16:16:06.641Z,100206.13
2019-03-26T16:18:34.009Z,100202.77
2019-03-26T16:21:01.329Z,100200.02
2019-03-26T16:23:28.894Z,100191.17
2019-03-26T16:25:56.317Z,100195.26
2019-03-26T16:28:23.759Z,100193.91
2019-03-26T16:30:50.994Z,100195.94
2019-03-26T16:33:18.855Z,100195.95
2019-03-26T16:35:46.659Z,100196.29
2019-03-26T16:38:14.671Z,100194.94
2019-03-26T16:40:42.261Z,100197.00
2019-03-26T16:43:09.595Z,100198.19
2019-03-26T16:45:37.333Z,100198.22
2019-03-26T16:48:04.787Z,100204.08
2019-03-26T16:50:32.192Z,100200.12
2019-03-26T16:52:59.688Z,100198.62
2019-03-26T16:55:26.978Z,100201.56
2019-03-26T16:57:54.346Z,100212.70
2019-03-26T17:00:30.095Z,100208.27
2019-03-26T17:02:57.871Z,100202.18
2019-03-26T17:05:25.943Z,100201.65
2019-03-26T17:07:54.449Z,100205.63
2019-03-26T17:10:21.826Z,100202.87
2019-03-26T17:12:49.699Z,100196.98
2019-03-26T17:15:16.979Z,100193.50
2019-03-26T17:17:44.339Z,100205.27
2019-03-26T17:20:11.695Z,100202.05
2019-03-26T17:22:39.429Z,100196.36
2019-03-26T17:25:07.760Z,100192.30
2019-03-26T17:27:35.086Z,100197.25
2019-03-26T17:30:02.850Z,100197.58
2019-03-26T17:32:30.509Z,100208.27
2019-03-26T17:34:57.999Z,100207.22
2019-03-26T17:37:25.427Z,100206.65
2019-03-26T17:39:52.712Z,100216.37
2019-03-26T17:42:20.502Z,100214.88
2019-03-26T17:44:48.207Z,100217.66
2019-03-26T17:47:15.523Z,100213.50
2019-03-26T17:49:42.773Z,100217.66
2019-03-26T17:52:12.703Z,100212.34
2019-03-26T17:54:39.977Z,100220.34
2019-03-26T17:57:07.295Z,100217.48
2019-03-26T17:59:34.545Z,100218.86
2019-03-26T18:02:01.835Z,100219.86
2019-03-26T18:04:29.611Z,100223.36
2019-03-26T18:06:56.879Z,100219.33
2019-03-26T18:09:24.151Z,100225.83
2019-03-26T18:11:51.451Z,100227.41
2019-03-26T18:14:18.708Z,100230.94
2019-03-26T18:16:46.067Z,100228.61
2019-03-26T18:19:13.620Z,100263.20
2019-03-26T18:21:50.862Z,100234.33
2019-03-26T18:24:10.135Z,100240.73
2019-03-26T18:26:37.680Z,100230.39
2019-03-26T18:29:04.935Z,100233.89
2019-03-26T18:31:32.478Z,100236.53
2019-03-26T18:34:00.341Z,100243.73
2019-03-26T18:36:30.047Z,100234.94
2019-03-26T18:38:57.519Z,100240.20
2019-03-26T18:41:25.018Z,100244.31
2019-03-26T18:43:52.685Z,100241.75
2019-03-26T18:46:20.517Z,100242.03
2019-03-26T18:48:47.791Z,100251.18
2019-03-26T18:51:15.264Z,100244.09
2019-03-26T18:53:42.709Z,100245.91
2019-03-26T18:56:09.999Z,100242.41
2019-03-26T18:58:37.393Z,100245.91
2019-03-26T19:01:04.735Z,100244.31
2019-03-26T19:03:32.048Z,100253.54
2019-03-26T19:05:59.348Z,100254.86
2019-03-26T19:08:26.605Z,100251.49
2019-03-26T19:10:54.120Z,100260.14
2019-03-26T19:13:21.622Z,100256.91
2019-03-26T19:15:49.161Z,100252.38
2019-03-26T19:18:16.564Z,100265.98
2019-03-26T19:20:43.949Z,100217.22
2019-03-26T19:23:11.506Z,100261.44
2019-03-26T19:25:39.040Z,100259.23
2019-03-26T19:28:09.988Z,100257.58
2019-03-26T19:30:37.472Z,100265.98
2019-03-26T19:33:04.876Z,100262.76
2019-03-26T19:35:32.253Z,100297.31
2019-03-26T19:37:59.914Z,100260.78
2019-03-26T19:40:27.485Z,100266.36
2019-03-26T19:42:54.755Z,100266.28
2019-03-26T19:45:22.089Z,100267.15
2019-03-26T19:47:50.371Z,100262.19
2019-03-26T19:50:17.604Z,100271.33
2019-03-26T19:52:44.962Z,100266.63
2019-03-26T19:55:12.647Z,100264.66
2019-03-26T19:57:39.907Z,100256.26
2019-03-26T20:00:08.921Z,100259.55
2019-03-26T20:02:36.287Z,100256.60
2019-03-26T20:05:04.165Z,100268.11
2019-03-26T20:07:38.598Z,100263.05
2019-03-26T20:10:05.986Z,100267.73
2019-03-26T20:12:33.368Z,100261.22
2019-03-26T20:15:00.626Z,100269.77
2019-03-26T20:17:28.003Z,100270.22
2019-03-26T20:19:58.908Z,100273.88
2019-03-26T20:22:26.660Z,100287.16
2019-03-26T20:24:54.161Z,100283.57
2019-03-26T20:27:21.648Z,100285.25
2019-03-26T20:29:49.029Z,100288.61
2019-03-26T20:32:16.673Z,100290.44
2019-03-26T20:34:44.222Z,100295.76
2019-03-26T20:37:11.602Z,100292.14
2019-03-26T20:39:38.964Z,100286.28
2019-03-26T20:42:14.736Z,100292.72
2019-03-26T20:44:42.449Z,100292.19
2019-03-26T20:47:10.521Z,100291.09
2019-03-26T20:49:37.887Z,100288.37
2019-03-26T20:52:05.784Z,100297.41
2019-03-26T20:54:33.011Z,100306.98
2019-03-26T20:57:00.538Z,100305.30
2019-03-26T20:59:27.979Z,100316.97
2019-03-26T21:01:55.281Z,100323.33
2019-03-26T21:04:22.548Z,100323.55
2019-03-26T21:06:50.675Z,100324.95
2019-03-26T21:09:18.296Z,100323.09
2019-03-26T21:11:46.238Z,100325.59
2019-03-26T21:14:13.587Z,100327.63
2019-03-26T21:16:41.411Z,100324.72
2019-03-26T21:19:08.901Z,100330.36
2019-03-26T21:21:36.434Z,100333.75
2019-03-26T21:24:04.069Z,100331.94
2019-03-26T21:26:31.331Z,100342.89
2019-03-26T21:29:01.586Z,100335.78
2019-03-26T21:31:28.852Z,100336.06
2019-03-26T21:33:58.403Z,100338.78
2019-03-26T21:36:25.768Z,100332.33
2019-03-26T21:38:53.362Z,100331.42
2019-03-26T21:41:20.741Z,100340.73
2019-03-26T21:43:48.969Z,100335.50
2019-03-26T21:46:16.714Z,100341.52
2019-03-26T21:48:45.942Z,100338.20
2019-03-26T21:51:15.988Z,100330.27
2019-03-26T21:53:43.840Z,100338.38
2019-03-26T21:56:11.214Z,100335.75
2019-03-26T21:58:39.830Z,100343.70
2019-03-26T22:01:07.150Z,100350.28
2019-03-26T22:03:34.540Z,100346.38
2019-03-26T22:06:01.791Z,100345.78
2019-03-26T22:08:31.046Z,100345.99
2019-03-26T22:10:58.294Z,100349.09
2019-03-26T22:13:26.165Z,100342.34
2019-03-26T22:15:53.417Z,100341.86
2019-03-26T22:18:21.587Z,100350.16
2019-03-26T22:20:48.956Z,100342.68
2019-03-26T22:23:16.786Z,100341.15
2019-03-26T22:25:44.231Z,100337.25
2019-03-26T22:28:11.534Z,100338.16
2019-03-26T22:30:38.830Z,100343.68
2019-03-26T22:33:06.133Z,100341.13
2019-03-26T22:35:37.149Z,100342.81
2019-03-26T22:38:04.511Z,100344.75
2019-03-26T22:40:32.284Z,100338.80
2019-03-26T22:42:59.741Z,100343.72
2019-03-26T22:45:27.016Z,100342.19
2019-03-26T22:47:54.534Z,100341.58
2019-03-26T22:50:24.495Z,100340.38
2019-03-26T22:52:51.899Z,100336.03
2019-03-26T22:55:19.871Z,100333.09
2019-03-26T22:57:49.282Z,100339.99
2019-03-26T23:00:16.869Z,100335.12
2019-03-26T23:02:48.731Z,100336.32
2019-03-26T23:05:16.768Z,100344.41
2019-03-26T23:07:44.526Z,100340.27
2019-03-26T23:10:12.074Z,100350.29
2019-03-26T23:12:39.469Z,100347.77
2019-03-26T23:15:13.888Z,100348.25
2019-03-26T23:17:41.371Z,100343.31
2019-03-26T23:20:09.002Z,100346.84
2019-03-26T23:22:36.612Z,100353.00
2019-03-26T23:25:03.938Z,100346.67
2019-03-26T23:27:32.928Z,100347.58
2019-03-26T23:30:00.346Z,100353.06
2019-03-26T23:32:29.710Z,100352.78
2019-03-26T23:34:57.018Z,100351.55
2019-03-26T23:37:24.562Z,100352.58
2019-03-26T23:39:51.868Z,100354.17
2019-03-26T23:42:19.132Z,100349.14
2019-03-26T23:44:57.749Z,100351.55
2019-03-26T23:47:15.614Z,100351.47
2019-03-26T23:49:43.082Z,100351.25
2019-03-26T23:52:10.315Z,100338.60
2019-03-26T23:54:37.588Z,100340.24
2019-03-26T23:57:05.220Z,100343.58
2019-03-26T23:59:33.319Z,100347.53
